Terminal Aerodrome Forecast
Issued by NWS Twin Cities, MN

Home | Current Version | Previous Version | Text Only | Print | Product List | Glossary Off
Versions: 1 2 3 4 5 6 7 8 9 10 11 12 13 14 15 16 17 18 19 20 21 22 23 24 25 26 27 28 29 30

000
FTUS43 KMPX 290500
TAFMSP
TAF
KMSP 290530Z 2906/3012 32006KT P6SM BKN070 BKN250
     FM290900 35006KT P6SM BKN018 OVC050
     FM291100 02010KT P6SM VCSH BKN012 OVC025
     FM291900 04011KT P6SM SCT018 OVC035
     FM300000 06007KT P6SM SCT040 BKN120=

USA.gov is the U.S. government's official web portal to all federal, state and local government web resources and services.